Time;durP1;ratioP1;P1;durP2;ratioP2;P2;SDS_P1;SDS_P2;PMS_P1;PMS_P2;Temp;Humidity;BMP_temperature;BMP_pressure;BME280_temperature;BME280_humidity;BME280_pressure;Samples;Min_cycle;Max_cycle;Signal;HPM_P1;HPM_P2
2023/05/21 00:01:54;;;;;;;4.35;3.97;;;;;;;;;;5030260;28;20283;-80
2023/05/21 00:04:20;;;;;;;4.38;3.97;;;;;;;;;;5001994;28;20228;-79
2023/05/21 00:06:45;;;;;;;4.07;3.78;;;;;;;;;;5021478;28;20219;-79
2023/05/21 00:09:13;;;;;;;4.00;3.70;;;;;;;;;;5004689;28;20239;-78
2023/05/21 00:11:38;;;;;;;4.40;4.00;;;;;;;;;;5001774;28;21106;-79
2023/05/21 00:14:04;;;;;;;4.05;3.45;;;;;;;;;;5022661;28;20239;-77
2023/05/21 00:16:32;;;;;;;4.30;4.00;;;;;;;;;;4985780;28;20232;-78
2023/05/21 00:19:00;;;;;;;4.28;3.92;;;;;;;;;;5013322;28;20231;-80
2023/05/21 00:21:30;;;;;;;4.10;3.78;;;;;;;;;;5020986;28;20227;-78
2023/05/21 00:23:55;;;;;;;3.88;3.58;;;;;;;;;;5019037;28;20574;-78
2023/05/21 00:26:23;;;;;;;3.93;3.57;;;;;;;;;;4989826;28;20228;-80
2023/05/21 00:28:52;;;;;;;4.13;3.72;;;;;;;;;;4997790;28;20240;-79
2023/05/21 00:31:18;;;;;;;4.10;3.80;;;;;;;;;;4987845;28;20228;-78
2023/05/21 00:33:43;;;;;;;5.17;3.87;;;;;;;;;;5016880;28;20217;-78
2023/05/21 00:36:13;;;;;;;4.20;3.80;;;;;;;;;;5016119;28;20205;-79
2023/05/21 00:38:42;;;;;;;3.63;3.33;;;;;;;;;;4975136;28;20214;-81
2023/05/21 00:41:08;;;;;;;3.80;3.50;;;;;;;;;;5001036;28;20233;-78
2023/05/21 00:43:34;;;;;;;3.77;3.47;;;;;;;;;;5024870;28;20224;-76
2023/05/21 00:45:59;;;;;;;4.00;3.60;;;;;;;;;;4992147;28;20213;-79
2023/05/21 00:48:27;;;;;;;4.27;3.30;;;;;;;;;;4992597;28;20255;-77
2023/05/21 00:50:53;;;;;;;3.20;3.00;;;;;;;;;;4990951;28;20293;-81
2023/05/21 00:53:21;;;;;;;5.17;3.53;;;;;;;;;;4997444;28;20228;-79
2023/05/21 00:55:48;;;;;;;4.05;3.10;;;;;;;;;;4999980;28;20221;-81
2023/05/21 00:58:19;;;;;;;4.37;3.10;;;;;;;;;;4996682;28;20679;-79
2023/05/21 01:01:02;;;;;;;4.80;3.30;;;;;;;;;;5004215;28;20233;-80
2023/05/21 01:03:37;;;;;;;3.40;3.10;;;;;;;;;;5000908;28;20686;-80
2023/05/21 01:06:06;;;;;;;3.43;2.90;;;;;;;;;;5005112;28;20223;-79
2023/05/21 01:08:33;;;;;;;4.10;3.13;;;;;;;;;;5021618;28;20346;-81
2023/05/21 01:11:01;;;;;;;3.67;3.27;;;;;;;;;;5005509;28;20244;-80
2023/05/21 01:13:27;;;;;;;3.55;3.10;;;;;;;;;;4984846;28;20261;-80
2023/05/21 01:15:52;;;;;;;4.53;2.70;;;;;;;;;;5004823;28;20213;-79
2023/05/21 01:18:18;;;;;;;3.23;2.53;;;;;;;;;;4996321;28;20209;-77
2023/05/21 01:20:49;;;;;;;3.55;3.10;;;;;;;;;;5017345;28;20216;-77
2023/05/21 01:23:17;;;;;;;3.28;2.80;;;;;;;;;;5016044;28;20280;-79
2023/05/21 01:25:43;;;;;;;3.30;2.58;;;;;;;;;;5011393;28;20387;-78
2023/05/21 01:28:11;;;;;;;3.58;2.90;;;;;;;;;;5009311;28;20311;-77
2023/05/21 01:30:40;;;;;;;3.13;2.83;;;;;;;;;;4995865;28;20246;-79
2023/05/21 01:33:25;;;;;;;4.00;2.70;;;;;;;;;;5000884;28;20235;-80
2023/05/21 01:36:22;;;;;;;4.17;3.17;;;;;;;;;;4997485;28;20347;-79
2023/05/21 01:39:13;;;;;;;2.93;2.70;;;;;;;;;;4986341;28;20221;-80
2023/05/21 01:41:40;;;;;;;3.60;2.70;;;;;;;;;;4984883;28;20244;-79
2023/05/21 01:44:06;;;;;;;2.73;2.53;;;;;;;;;;5002091;28;20230;-79
2023/05/21 01:46:32;;;;;;;3.40;2.83;;;;;;;;;;5001729;28;20315;-82
2023/05/21 01:49:00;;;;;;;3.13;2.53;;;;;;;;;;4984266;28;20229;-81
2023/05/21 01:51:27;;;;;;;2.90;2.70;;;;;;;;;;4995514;28;20229;-79
2023/05/21 01:53:53;;;;;;;2.83;2.60;;;;;;;;;;4989248;28;20706;-79
2023/05/21 01:56:21;;;;;;;3.07;2.60;;;;;;;;;;5004088;28;20231;-77
2023/05/21 01:58:48;;;;;;;3.50;2.50;;;;;;;;;;5016718;28;20214;-80
2023/05/21 02:01:14;;;;;;;3.27;2.47;;;;;;;;;;4989245;28;20223;-78
2023/05/21 02:03:40;;;;;;;3.37;3.03;;;;;;;;;;5028058;28;20224;-80
2023/05/21 02:06:14;;;;;;;3.37;2.73;;;;;;;;;;5017357;28;20863;-80
2023/05/21 02:08:39;;;;;;;3.53;2.60;;;;;;;;;;5017790;28;20778;-78
2023/05/21 02:11:05;;;;;;;3.73;2.47;;;;;;;;;;5005684;28;20224;-79
2023/05/21 02:13:33;;;;;;;3.23;2.77;;;;;;;;;;4992307;23;20315;-77
2023/05/21 02:16:00;;;;;;;2.80;2.47;;;;;;;;;;4996213;28;20244;-78
2023/05/21 02:18:28;;;;;;;2.80;2.60;;;;;;;;;;5013912;28;20270;-78
2023/05/21 02:20:55;;;;;;;3.03;2.60;;;;;;;;;;4996900;28;20291;-77
2023/05/21 02:23:21;;;;;;;2.90;2.50;;;;;;;;;;4983998;28;20224;-76
2023/05/21 02:25:49;;;;;;;4.90;2.70;;;;;;;;;;4998455;28;20278;-77
2023/05/21 02:28:17;;;;;;;2.97;2.27;;;;;;;;;;4995365;28;20249;-77
2023/05/21 02:30:43;;;;;;;3.77;2.63;;;;;;;;;;4995195;28;20220;-77
2023/05/21 02:33:13;;;;;;;3.27;2.67;;;;;;;;;;5025866;28;20224;-77
2023/05/21 02:35:38;;;;;;;3.67;2.50;;;;;;;;;;5008688;28;20228;-77
2023/05/21 02:38:04;;;;;;;4.27;2.60;;;;;;;;;;5029800;28;20231;-77
2023/05/21 02:40:32;;;;;;;2.70;2.40;;;;;;;;;;4999521;28;20221;-77
2023/05/21 02:42:57;;;;;;;4.47;2.40;;;;;;;;;;4997753;28;20301;-77
2023/05/21 02:45:28;;;;;;;4.23;2.83;;;;;;;;;;5031776;28;20219;-77
2023/05/21 02:47:58;;;;;;;4.60;2.43;;;;;;;;;;4995698;28;20259;-77
2023/05/21 02:50:24;;;;;;;3.00;2.70;;;;;;;;;;5011413;28;20231;-77
2023/05/21 02:52:58;;;;;;;2.60;2.40;;;;;;;;;;4998135;28;20213;-77
2023/05/21 02:55:26;;;;;;;2.60;2.37;;;;;;;;;;4988909;28;20625;-77
2023/05/21 02:57:54;;;;;;;2.80;2.60;;;;;;;;;;5015784;28;20211;-75
2023/05/21 03:00:19;;;;;;;2.80;2.53;;;;;;;;;;4999790;28;20282;-77
2023/05/21 03:02:45;;;;;;;3.27;2.53;;;;;;;;;;5002747;28;20736;-77
2023/05/21 03:05:15;;;;;;;2.73;2.37;;;;;;;;;;4998627;28;20224;-77
2023/05/21 03:07:42;;;;;;;2.77;2.40;;;;;;;;;;4989928;28;20217;-78
2023/05/21 03:10:13;;;;;;;3.30;2.70;;;;;;;;;;4999514;28;20224;-77
2023/05/21 03:12:38;;;;;;;3.50;2.70;;;;;;;;;;5006089;28;20228;-77
2023/05/21 03:15:04;;;;;;;3.17;2.43;;;;;;;;;;4990517;28;20637;-76
2023/05/21 03:17:32;;;;;;;2.53;2.30;;;;;;;;;;4982775;28;20573;-76
2023/05/21 03:20:00;;;;;;;3.07;2.60;;;;;;;;;;5013527;28;20222;-76
2023/05/21 03:22:26;;;;;;;3.40;2.70;;;;;;;;;;4981795;28;20224;-76
2023/05/21 03:24:53;;;;;;;4.47;2.60;;;;;;;;;;5012071;28;20560;-76
2023/05/21 03:27:19;;;;;;;2.83;2.37;;;;;;;;;;5005964;28;20231;-77
2023/05/21 03:29:49;;;;;;;4.83;2.80;;;;;;;;;;4985016;28;20361;-77
2023/05/21 03:32:18;;;;;;;2.92;2.63;;;;;;;;;;5013071;28;20224;-77
2023/05/21 03:34:50;;;;;;;4.03;2.77;;;;;;;;;;4993529;28;20216;-77
2023/05/21 03:37:18;;;;;;;3.10;2.60;;;;;;;;;;5007375;28;20228;-77
2023/05/21 03:39:43;;;;;;;4.67;3.10;;;;;;;;;;4983123;28;20613;-77
2023/05/21 03:42:12;;;;;;;3.92;2.95;;;;;;;;;;5000859;28;20226;-75
2023/05/21 03:44:48;;;;;;;3.53;3.07;;;;;;;;;;5008638;28;20235;-76
2023/05/21 03:47:36;;;;;;;2.93;2.63;;;;;;;;;;5005089;28;20224;-77
2023/05/21 03:50:05;;;;;;;3.43;2.80;;;;;;;;;;5016690;28;20227;-76
2023/05/21 03:52:31;;;;;;;3.10;2.50;;;;;;;;;;5030419;28;20308;-75
2023/05/21 03:54:57;;;;;;;3.20;2.90;;;;;;;;;;4997742;28;20226;-76
2023/05/21 03:57:26;;;;;;;4.10;2.73;;;;;;;;;;5018563;28;20251;-78
2023/05/21 03:59:57;;;;;;;4.87;2.80;;;;;;;;;;5004466;28;20212;-77
2023/05/21 04:02:30;;;;;;;4.27;2.87;;;;;;;;;;5014536;28;20619;-76
2023/05/21 04:04:56;;;;;;;3.27;2.97;;;;;;;;;;4993582;28;20300;-77
2023/05/21 04:07:25;;;;;;;4.80;3.00;;;;;;;;;;5004855;28;20219;-77
2023/05/21 04:09:51;;;;;;;3.40;3.10;;;;;;;;;;4997658;28;20220;-78
2023/05/21 04:12:19;;;;;;;3.30;2.83;;;;;;;;;;4996336;28;20220;-77
2023/05/21 04:14:46;;;;;;;3.80;2.87;;;;;;;;;;4998076;28;20282;-77
2023/05/21 04:17:17;;;;;;;3.47;2.87;;;;;;;;;;5001364;28;20583;-77
2023/05/21 04:19:46;;;;;;;4.00;3.47;;;;;;;;;;4990017;28;20645;-78
2023/05/21 04:22:12;;;;;;;3.93;3.17;;;;;;;;;;5031570;23;20238;-80
2023/05/21 04:24:41;;;;;;;3.33;3.03;;;;;;;;;;5008098;28;20217;-78
2023/05/21 04:27:22;;;;;;;3.13;2.93;;;;;;;;;;5014545;28;20664;-80
2023/05/21 04:29:53;;;;;;;5.27;3.33;;;;;;;;;;5015234;28;20231;-79
2023/05/21 04:32:21;;;;;;;5.10;3.70;;;;;;;;;;5019698;28;20250;-77
2023/05/21 04:34:47;;;;;;;4.60;3.60;;;;;;;;;;4998749;28;20208;-79
2023/05/21 04:37:13;;;;;;;3.77;3.47;;;;;;;;;;5035779;28;20230;-78
2023/05/21 04:39:39;;;;;;;5.70;3.63;;;;;;;;;;5038098;28;20216;-78
2023/05/21 04:42:09;;;;;;;4.47;3.67;;;;;;;;;;5002261;28;20228;-80
2023/05/21 04:44:36;;;;;;;4.23;3.67;;;;;;;;;;5008901;28;20216;-81
2023/05/21 04:47:17;;;;;;;3.73;3.40;;;;;;;;;;5005446;28;20592;-80
2023/05/21 04:49:43;;;;;;;6.33;3.80;;;;;;;;;;5011927;28;20244;-80
2023/05/21 04:52:08;;;;;;;4.20;3.80;;;;;;;;;;5025623;28;20220;-82
2023/05/21 04:54:37;;;;;;;4.13;3.80;;;;;;;;;;5027967;28;20317;-79
2023/05/21 04:57:04;;;;;;;3.97;3.57;;;;;;;;;;5009267;28;20216;-80
2023/05/21 04:59:34;;;;;;;4.40;4.00;;;;;;;;;;5028083;28;20209;-79
2023/05/21 05:02:03;;;;;;;6.20;4.10;;;;;;;;;;5033795;28;20235;-80
2023/05/21 05:04:31;;;;;;;4.37;3.97;;;;;;;;;;5005236;28;20216;-80
2023/05/21 05:06:59;;;;;;;6.17;4.40;;;;;;;;;;5014720;28;20706;-79
2023/05/21 05:09:24;;;;;;;4.97;4.17;;;;;;;;;;5020395;28;20223;-79
2023/05/21 05:11:50;;;;;;;5.43;4.18;;;;;;;;;;5012897;28;20216;-78
2023/05/21 05:14:16;;;;;;;4.30;3.90;;;;;;;;;;5012023;28;20227;-78
2023/05/21 05:16:42;;;;;;;4.80;4.33;;;;;;;;;;5005082;28;20227;-80
2023/05/21 05:19:11;;;;;;;4.63;4.05;;;;;;;;;;5013774;28;20236;-79
2023/05/21 05:21:36;;;;;;;5.23;4.50;;;;;;;;;;5001969;28;20227;-80
2023/05/21 05:24:03;;;;;;;5.00;4.18;;;;;;;;;;5023570;28;20302;-79
2023/05/21 05:26:30;;;;;;;5.10;4.55;;;;;;;;;;4996431;28;20224;-79
2023/05/21 05:28:58;;;;;;;4.97;4.22;;;;;;;;;;5002727;28;20587;-79
2023/05/21 05:31:25;;;;;;;4.90;4.40;;;;;;;;;;5013861;28;20220;-80
2023/05/21 05:33:51;;;;;;;5.10;4.60;;;;;;;;;;5008616;28;20239;-80
2023/05/21 05:36:20;;;;;;;5.57;4.35;;;;;;;;;;5018144;28;20219;-79
2023/05/21 05:38:50;;;;;;;5.13;4.20;;;;;;;;;;5027731;28;20318;-81
2023/05/21 05:41:19;;;;;;;5.13;4.28;;;;;;;;;;5000320;28;20251;-79
2023/05/21 05:43:46;;;;;;;4.80;4.30;;;;;;;;;;5020090;28;20299;-79
2023/05/21 05:46:21;;;;;;;4.78;4.25;;;;;;;;;;5036399;28;20281;-79
2023/05/21 05:48:49;;;;;;;4.82;4.28;;;;;;;;;;4996327;28;20223;-80
2023/05/21 05:51:21;;;;;;;4.63;4.22;;;;;;;;;;5010052;28;20216;-80
2023/05/21 05:53:46;;;;;;;4.40;3.97;;;;;;;;;;5035734;28;20231;-78
2023/05/21 05:56:15;;;;;;;4.22;3.83;;;;;;;;;;5003366;28;20563;-77
2023/05/21 05:58:41;;;;;;;5.25;3.85;;;;;;;;;;5008891;28;20265;-80
2023/05/21 06:01:12;;;;;;;4.40;4.00;;;;;;;;;;5014690;28;20218;-76
2023/05/21 06:03:39;;;;;;;5.50;4.57;;;;;;;;;;5000711;23;20225;-78
2023/05/21 06:06:10;;;;;;;6.18;4.20;;;;;;;;;;4986813;28;20218;-77
2023/05/21 06:08:36;;;;;;;4.60;4.20;;;;;;;;;;5014976;28;20263;-78
2023/05/21 06:11:05;;;;;;;4.65;4.13;;;;;;;;;;5017997;28;20217;-78
2023/05/21 06:13:33;;;;;;;4.35;3.95;;;;;;;;;;5015342;28;20690;-79
2023/05/21 06:16:05;;;;;;;6.68;4.03;;;;;;;;;;5008712;28;20315;-78
2023/05/21 06:18:31;;;;;;;4.88;4.38;;;;;;;;;;5012830;28;20319;-75
2023/05/21 06:20:58;;;;;;;4.53;4.13;;;;;;;;;;5007277;28;20223;-75
2023/05/21 06:23:30;;;;;;;4.93;4.05;;;;;;;;;;5008241;28;20216;-78
2023/05/21 06:25:56;;;;;;;4.80;4.40;;;;;;;;;;5015279;28;20217;-81
2023/05/21 06:28:24;;;;;;;5.68;4.70;;;;;;;;;;5020660;28;20235;-80
2023/05/21 06:30:55;;;;;;;5.15;4.72;;;;;;;;;;4997303;28;20205;-80
2023/05/21 06:33:26;;;;;;;4.80;4.40;;;;;;;;;;5012001;28;20225;-78
2023/05/21 06:35:52;;;;;;;5.30;4.80;;;;;;;;;;5012909;28;20219;-79
2023/05/21 06:38:20;;;;;;;5.35;4.85;;;;;;;;;;4999603;28;20204;-78
2023/05/21 06:40:46;;;;;;;5.60;5.00;;;;;;;;;;4999796;28;20221;-81
2023/05/21 06:43:19;;;;;;;6.20;4.63;;;;;;;;;;5002097;28;20626;-80
2023/05/21 06:46:03;;;;;;;5.10;4.70;;;;;;;;;;5015226;28;20593;-80
2023/05/21 06:48:38;;;;;;;6.03;5.50;;;;;;;;;;4980024;28;20228;-81
2023/05/21 06:51:04;;;;;;;6.13;5.50;;;;;;;;;;4995251;28;20749;-79
2023/05/21 06:53:34;;;;;;;6.07;5.47;;;;;;;;;;5015715;28;20616;-77
2023/05/21 06:56:00;;;;;;;6.68;5.72;;;;;;;;;;4997365;28;20662;-77
2023/05/21 06:58:34;;;;;;;6.43;5.85;;;;;;;;;;5002748;28;20217;-81
2023/05/21 07:01:00;;;;;;;7.38;6.13;;;;;;;;;;4974958;28;20253;-77
2023/05/21 07:03:26;;;;;;;6.68;6.05;;;;;;;;;;4996777;28;20276;-80
2023/05/21 07:05:52;;;;;;;6.35;5.75;;;;;;;;;;4996096;28;20252;-78
2023/05/21 07:08:20;;;;;;;6.63;6.05;;;;;;;;;;4985292;28;20707;-79
2023/05/21 07:10:45;;;;;;;7.15;6.18;;;;;;;;;;4998915;28;20268;-78
2023/05/21 07:13:14;;;;;;;7.40;6.30;;;;;;;;;;5022211;28;20788;-79
2023/05/21 07:15:39;;;;;;;7.47;6.88;;;;;;;;;;4981731;28;20220;-77
2023/05/21 07:18:05;;;;;;;8.32;7.07;;;;;;;;;;4998855;28;20372;-78
2023/05/21 07:20:31;;;;;;;7.28;6.57;;;;;;;;;;4998629;28;20221;-77
2023/05/21 07:23:00;;;;;;;7.13;6.53;;;;;;;;;;4999661;28;20229;-79
2023/05/21 07:25:28;;;;;;;7.20;6.60;;;;;;;;;;5024222;28;20868;-80
2023/05/21 07:27:58;;;;;;;7.55;6.88;;;;;;;;;;4999190;28;20205;-79
2023/05/21 07:30:26;;;;;;;8.52;7.82;;;;;;;;;;5007579;28;20216;-79
2023/05/21 07:32:55;;;;;;;9.68;8.70;;;;;;;;;;4980605;28;20224;-79
2023/05/21 07:35:23;;;;;;;8.55;7.85;;;;;;;;;;5007087;28;20225;-79
2023/05/21 07:37:51;;;;;;;8.75;7.95;;;;;;;;;;5003188;28;20211;-78
2023/05/21 07:40:19;;;;;;;8.27;7.50;;;;;;;;;;4982698;28;20220;-78
2023/05/21 07:42:48;;;;;;;9.77;8.55;;;;;;;;;;5008445;28;20239;-80
2023/05/21 07:45:17;;;;;;;8.77;7.93;;;;;;;;;;5011748;28;20624;-81
2023/05/21 07:47:44;;;;;;;8.20;7.50;;;;;;;;;;5003061;28;20221;-77
2023/05/21 07:50:13;;;;;;;8.50;7.78;;;;;;;;;;4997702;28;20232;-78
2023/05/21 07:52:38;;;;;;;9.27;8.48;;;;;;;;;;5014694;28;20225;-78
2023/05/21 07:55:05;;;;;;;9.95;9.10;;;;;;;;;;4997592;28;20220;-77
2023/05/21 07:57:38;;;;;;;10.00;9.00;;;;;;;;;;4995449;28;20244;-78
2023/05/21 08:00:13;;;;;;;9.75;8.68;;;;;;;;;;4998307;28;20224;-77
2023/05/21 08:02:46;;;;;;;8.93;8.00;;;;;;;;;;5009027;28;20224;-79
2023/05/21 08:05:16;;;;;;;9.57;8.77;;;;;;;;;;4989800;28;20221;-81
2023/05/21 08:07:45;;;;;;;9.63;8.80;;;;;;;;;;5011659;28;20221;-80
2023/05/21 08:10:15;;;;;;;9.90;9.00;;;;;;;;;;4995867;28;20217;-79
2023/05/21 08:12:40;;;;;;;10.00;9.10;;;;;;;;;;5013890;28;20221;-77
2023/05/21 08:15:10;;;;;;;9.48;8.68;;;;;;;;;;5017952;28;20217;-78
2023/05/21 08:17:41;;;;;;;9.13;8.40;;;;;;;;;;4996927;28;20251;-79
2023/05/21 08:20:07;;;;;;;9.00;8.30;;;;;;;;;;4983867;28;20234;-79
2023/05/21 08:22:35;;;;;;;8.88;8.07;;;;;;;;;;5008126;28;20225;-77
2023/05/21 08:25:29;;;;;;;9.18;8.30;;;;;;;;;;5008393;28;20260;-77
2023/05/21 08:27:55;;;;;;;9.82;8.88;;;;;;;;;;5021180;28;20223;-78
2023/05/21 08:30:21;;;;;;;8.07;7.35;;;;;;;;;;5005547;28;20229;-77
2023/05/21 08:32:47;;;;;;;9.18;8.38;;;;;;;;;;5005430;28;20221;-77
2023/05/21 08:35:15;;;;;;;8.65;7.95;;;;;;;;;;5004271;28;20717;-76
2023/05/21 08:38:04;;;;;;;9.80;8.85;;;;;;;;;;5004653;28;20219;-79
2023/05/21 08:40:46;;;;;;;8.95;8.13;;;;;;;;;;4996833;28;20284;-81
2023/05/21 08:43:15;;;;;;;9.55;8.65;;;;;;;;;;4990726;28;20291;-79
2023/05/21 08:45:52;;;;;;;9.50;8.63;;;;;;;;;;5003692;28;20701;-77
2023/05/21 08:48:18;;;;;;;9.38;8.57;;;;;;;;;;5015773;28;20229;-78
2023/05/21 08:50:49;;;;;;;9.45;8.60;;;;;;;;;;4995596;28;20209;-79
2023/05/21 08:53:22;;;;;;;9.65;8.77;;;;;;;;;;4997151;28;20212;-79
2023/05/21 08:55:49;;;;;;;10.05;9.05;;;;;;;;;;4983829;28;20712;-80
2023/05/21 08:58:24;;;;;;;9.52;8.63;;;;;;;;;;4977516;28;20227;-78
2023/05/21 09:00:53;;;;;;;8.63;7.82;;;;;;;;;;5001695;28;20213;-79
2023/05/21 09:03:21;;;;;;;9.45;8.55;;;;;;;;;;4998433;28;20313;-77
2023/05/21 09:05:50;;;;;;;9.82;8.93;;;;;;;;;;4996189;28;20220;-78
2023/05/21 09:08:25;;;;;;;8.77;7.97;;;;;;;;;;4988996;28;20710;-79
2023/05/21 09:11:03;;;;;;;9.68;8.88;;;;;;;;;;4992724;28;20217;-77
2023/05/21 09:13:37;;;;;;;10.02;8.88;;;;;;;;;;4987488;28;20599;-81
2023/05/21 09:16:07;;;;;;;9.52;8.73;;;;;;;;;;4986858;28;20290;-80
2023/05/21 09:18:32;;;;;;;9.55;8.75;;;;;;;;;;5002810;28;20575;-80
2023/05/21 09:21:25;;;;;;;10.38;9.15;;;;;;;;;;5000863;28;21320;-80
2023/05/21 09:23:59;;;;;;;9.57;8.60;;;;;;;;;;4999232;28;20221;-78
2023/05/21 09:26:25;;;;;;;9.45;8.55;;;;;;;;;;5004569;28;20221;-79
2023/05/21 09:28:59;;;;;;;9.10;8.20;;;;;;;;;;4999252;28;20255;-78
2023/05/21 09:31:25;;;;;;;8.77;7.97;;;;;;;;;;5001100;28;20224;-80
2023/05/21 09:33:51;;;;;;;9.57;8.68;;;;;;;;;;4983735;28;20221;-79
2023/05/21 09:36:19;;;;;;;9.10;8.30;;;;;;;;;;4987694;28;20209;-79
2023/05/21 09:38:46;;;;;;;9.38;8.65;;;;;;;;;;5017655;28;20282;-80
2023/05/21 09:41:12;;;;;;;8.88;8.07;;;;;;;;;;4986881;28;20231;-79
2023/05/21 09:43:40;;;;;;;9.43;8.52;;;;;;;;;;5001127;28;20233;-78
2023/05/21 09:46:06;;;;;;;9.15;8.45;;;;;;;;;;5003589;28;20217;-78
2023/05/21 09:48:39;;;;;;;9.35;8.55;;;;;;;;;;4998894;28;21262;-78
2023/05/21 09:51:20;;;;;;;9.77;8.90;;;;;;;;;;4987950;28;20217;-78
2023/05/21 09:53:52;;;;;;;9.32;8.43;;;;;;;;;;4983131;28;20286;-79
2023/05/21 09:56:24;;;;;;;9.18;8.40;;;;;;;;;;5010475;28;20288;-77
2023/05/21 09:58:53;;;;;;;9.02;8.32;;;;;;;;;;5008335;28;20245;-78
2023/05/21 10:01:19;;;;;;;9.40;8.50;;;;;;;;;;4991302;28;20274;-77
2023/05/21 10:03:44;;;;;;;9.63;8.73;;;;;;;;;;5007063;28;20232;-78
2023/05/21 10:06:10;;;;;;;9.05;8.27;;;;;;;;;;5006868;28;20217;-78
2023/05/21 10:08:36;;;;;;;9.55;8.75;;;;;;;;;;4993589;28;20643;-80
2023/05/21 10:11:04;;;;;;;9.35;8.48;;;;;;;;;;4985119;28;20220;-80
2023/05/21 10:13:30;;;;;;;9.43;8.70;;;;;;;;;;4983959;28;20252;-81
2023/05/21 10:16:08;;;;;;;9.98;9.10;;;;;;;;;;4998797;28;20575;-81
2023/05/21 10:18:34;;;;;;;9.40;8.50;;;;;;;;;;4984722;28;20220;-78
2023/05/21 10:20:59;;;;;;;10.25;9.23;;;;;;;;;;5001252;28;20217;-78
2023/05/21 10:23:27;;;;;;;9.77;8.98;;;;;;;;;;5001614;28;20946;-78
2023/05/21 10:25:52;;;;;;;9.68;8.80;;;;;;;;;;4994747;28;20221;-79
2023/05/21 10:28:18;;;;;;;9.30;8.52;;;;;;;;;;4988249;28;20240;-78
2023/05/21 10:30:50;;;;;;;8.93;8.13;;;;;;;;;;4987196;28;20282;-75
2023/05/21 10:33:19;;;;;;;9.60;8.80;;;;;;;;;;4998359;28;20220;-78
2023/05/21 10:35:46;;;;;;;10.18;9.20;;;;;;;;;;4986192;28;20213;-78
2023/05/21 10:38:11;;;;;;;9.75;8.88;;;;;;;;;;4983496;28;20216;-78
2023/05/21 10:40:41;;;;;;;9.75;8.95;;;;;;;;;;5013715;28;20251;-78
2023/05/21 10:43:12;;;;;;;9.52;8.77;;;;;;;;;;4997322;28;20225;-79
2023/05/21 10:46:09;;;;;;;9.55;8.75;;;;;;;;;;5008878;28;20221;-80
2023/05/21 10:49:08;;;;;;;10.05;9.07;;;;;;;;;;4998240;28;20232;-80
2023/05/21 10:51:41;;;;;;;10.07;9.18;;;;;;;;;;4998152;28;20240;-78
2023/05/21 10:54:25;;;;;;;9.35;8.55;;;;;;;;;;4991337;28;20248;-78
2023/05/21 10:56:56;;;;;;;9.35;8.45;;;;;;;;;;5019274;28;20236;-78
2023/05/21 10:59:47;;;;;;;8.95;8.05;;;;;;;;;;5014125;28;20218;-81
2023/05/21 11:02:13;;;;;;;9.10;8.40;;;;;;;;;;5020388;28;20221;-80
2023/05/21 11:04:43;;;;;;;9.55;8.65;;;;;;;;;;5026290;28;20263;-77
2023/05/21 11:07:08;;;;;;;8.93;8.20;;;;;;;;;;5018104;28;20220;-77
2023/05/21 11:09:34;;;;;;;9.25;8.45;;;;;;;;;;5016550;28;20235;-76
2023/05/21 11:14:40;;;;;;;9.82;8.90;;;;;;;;;;5008769;28;20225;-77
2023/05/21 11:17:14;;;;;;;9.38;8.57;;;;;;;;;;4957721;28;20227;-79
2023/05/21 11:19:42;;;;;;;9.68;8.60;;;;;;;;;;4979557;28;20225;-79
2023/05/21 11:22:28;;;;;;;9.48;8.57;;;;;;;;;;4994773;28;20247;-77
2023/05/21 11:24:54;;;;;;;9.00;8.27;;;;;;;;;;5008336;28;20308;-78
2023/05/21 11:27:29;;;;;;;9.25;8.45;;;;;;;;;;4991478;28;20319;-78
2023/05/21 11:29:55;;;;;;;9.15;8.32;;;;;;;;;;5006907;28;20716;-77
2023/05/21 11:32:22;;;;;;;8.68;7.88;;;;;;;;;;5015964;28;20215;-76
2023/05/21 11:34:48;;;;;;;8.75;7.95;;;;;;;;;;5002024;28;20227;-77
2023/05/21 11:37:17;;;;;;;9.00;8.20;;;;;;;;;;4980395;28;20213;-79
2023/05/21 11:39:46;;;;;;;9.18;8.32;;;;;;;;;;5018745;28;20223;-80
2023/05/21 11:42:12;;;;;;;8.60;7.90;;;;;;;;;;5007197;28;20212;-80
2023/05/21 11:44:44;;;;;;;9.25;7.85;;;;;;;;;;4992452;28;20229;-80
2023/05/21 11:47:18;;;;;;;8.10;7.50;;;;;;;;;;5006281;28;20220;-80
2023/05/21 11:49:44;;;;;;;8.95;8.25;;;;;;;;;;4998548;28;21046;-80
2023/05/21 11:52:13;;;;;;;9.05;8.25;;;;;;;;;;4984765;28;20298;-78
2023/05/21 11:54:50;;;;;;;8.50;7.80;;;;;;;;;;4999366;28;20224;-80
2023/05/21 11:57:17;;;;;;;9.10;8.35;;;;;;;;;;4975529;28;20488;-78
2023/05/21 11:59:48;;;;;;;8.63;7.82;;;;;;;;;;5018827;28;20291;-79
2023/05/21 12:02:17;;;;;;;8.88;8.15;;;;;;;;;;5007728;23;20213;-77
2023/05/21 12:04:44;;;;;;;8.98;8.18;;;;;;;;;;4972412;28;20220;-76
2023/05/21 12:07:13;;;;;;;8.65;7.95;;;;;;;;;;4992528;28;20300;-78
2023/05/21 12:09:39;;;;;;;8.45;7.75;;;;;;;;;;4988780;28;20228;-77
2023/05/21 12:12:09;;;;;;;8.48;7.72;;;;;;;;;;4994978;28;20622;-78
2023/05/21 12:14:37;;;;;;;8.57;7.90;;;;;;;;;;4987407;28;20236;-77
2023/05/21 12:17:09;;;;;;;8.85;8.05;;;;;;;;;;4973208;28;20217;-78
2023/05/21 12:19:39;;;;;;;8.85;8.15;;;;;;;;;;4989216;28;20232;-77
2023/05/21 12:22:19;;;;;;;8.63;7.82;;;;;;;;;;4994503;28;20610;-77
2023/05/21 12:24:45;;;;;;;8.82;8.00;;;;;;;;;;4995083;28;20367;-77
2023/05/21 12:27:15;;;;;;;9.27;8.48;;;;;;;;;;4990132;28;20271;-78
2023/05/21 12:29:45;;;;;;;8.63;8.00;;;;;;;;;;5005789;28;20233;-76
2023/05/21 12:32:14;;;;;;;8.55;7.65;;;;;;;;;;4989425;28;20707;-76
2023/05/21 12:34:40;;;;;;;8.40;7.75;;;;;;;;;;4969211;28;20705;-76
2023/05/21 12:37:19;;;;;;;8.68;7.97;;;;;;;;;;4992815;28;20312;-77
2023/05/21 12:39:48;;;;;;;9.82;9.00;;;;;;;;;;5005129;28;20263;-77
2023/05/21 12:42:16;;;;;;;9.02;8.15;;;;;;;;;;5000322;28;20236;-75
2023/05/21 12:44:45;;;;;;;8.45;7.75;;;;;;;;;;4983141;28;20304;-77
2023/05/21 12:47:11;;;;;;;8.70;7.90;;;;;;;;;;5002391;28;20231;-77
2023/05/21 12:49:43;;;;;;;8.93;8.13;;;;;;;;;;4989601;28;20225;-76
2023/05/21 12:52:13;;;;;;;9.48;8.82;;;;;;;;;;4986120;28;20690;-76
2023/05/21 12:54:44;;;;;;;9.27;8.48;;;;;;;;;;4983343;28;20222;-76
2023/05/21 12:57:16;;;;;;;9.63;8.73;;;;;;;;;;4982750;28;20783;-76
2023/05/21 12:59:52;;;;;;;9.23;8.32;;;;;;;;;;5000532;28;20948;-77
2023/05/21 13:02:21;;;;;;;9.18;8.48;;;;;;;;;;4984559;28;20710;-77
2023/05/21 13:04:47;;;;;;;8.90;8.10;;;;;;;;;;4967015;28;20601;-77
2023/05/21 13:07:16;;;;;;;10.02;8.40;;;;;;;;;;4985015;28;20217;-77
2023/05/21 13:09:44;;;;;;;9.43;8.52;;;;;;;;;;4967096;28;20225;-77
2023/05/21 13:12:12;;;;;;;9.57;8.77;;;;;;;;;;5003276;28;20734;-77
2023/05/21 13:14:37;;;;;;;9.13;8.30;;;;;;;;;;5009785;28;20210;-76
2023/05/21 13:17:05;;;;;;;9.20;8.40;;;;;;;;;;5000025;28;20241;-77
2023/05/21 13:19:30;;;;;;;9.30;8.60;;;;;;;;;;4985335;28;20225;-77
2023/05/21 13:21:58;;;;;;;9.52;8.27;;;;;;;;;;4982722;28;20236;-77
2023/05/21 13:24:24;;;;;;;8.93;8.07;;;;;;;;;;4987580;28;20217;-77
2023/05/21 13:26:51;;;;;;;9.25;8.40;;;;;;;;;;5002529;28;20648;-77
2023/05/21 13:29:22;;;;;;;8.80;8.10;;;;;;;;;;4990270;28;20768;-77
2023/05/21 13:31:50;;;;;;;9.15;8.30;;;;;;;;;;5001901;28;20233;-76
2023/05/21 13:34:17;;;;;;;9.73;8.93;;;;;;;;;;4998888;28;20233;-76
2023/05/21 13:36:45;;;;;;;9.02;8.23;;;;;;;;;;4985833;28;20702;-77
2023/05/21 13:39:11;;;;;;;9.73;8.82;;;;;;;;;;4990758;28;20228;-77
2023/05/21 13:41:39;;;;;;;9.05;8.25;;;;;;;;;;4971443;28;20264;-76
2023/05/21 13:44:04;;;;;;;8.63;7.82;;;;;;;;;;5003992;28;20739;-77
2023/05/21 13:46:39;;;;;;;11.30;8.80;;;;;;;;;;4985775;28;20225;-77
2023/05/21 13:49:05;;;;;;;9.15;8.35;;;;;;;;;;4976669;28;20233;-77
2023/05/21 13:51:33;;;;;;;9.00;8.20;;;;;;;;;;4985533;28;20240;-77
2023/05/21 13:53:59;;;;;;;8.80;8.10;;;;;;;;;;4985443;28;20244;-77
2023/05/21 13:56:25;;;;;;;8.98;8.20;;;;;;;;;;5019298;28;20845;-76
2023/05/21 13:58:53;;;;;;;9.02;8.27;;;;;;;;;;5006748;28;20279;-77
2023/05/21 14:01:20;;;;;;;9.40;8.55;;;;;;;;;;4989745;28;20221;-77
2023/05/21 14:03:46;;;;;;;8.82;8.13;;;;;;;;;;4986982;28;20221;-77
2023/05/21 14:06:11;;;;;;;9.10;8.32;;;;;;;;;;4991934;28;20233;-78
2023/05/21 14:08:37;;;;;;;8.13;7.43;;;;;;;;;;4987160;28;20601;-77
2023/05/21 14:11:07;;;;;;;8.88;7.97;;;;;;;;;;4982714;28;20230;-77
2023/05/21 14:13:35;;;;;;;9.02;8.18;;;;;;;;;;5008981;28;20274;-77
2023/05/21 14:16:00;;;;;;;9.00;7.93;;;;;;;;;;4987419;28;20236;-77
2023/05/21 14:18:30;;;;;;;8.95;8.13;;;;;;;;;;4984471;28;20301;-77
2023/05/21 14:20:56;;;;;;;8.60;7.93;;;;;;;;;;5004432;28;20845;-76
2023/05/21 14:23:21;;;;;;;9.25;8.45;;;;;;;;;;5008951;28;20213;-77
2023/05/21 14:25:49;;;;;;;9.10;8.30;;;;;;;;;;4987643;28;20304;-77
2023/05/21 14:28:17;;;;;;;8.63;7.93;;;;;;;;;;5003324;28;20278;-77
2023/05/21 14:30:43;;;;;;;9.10;8.27;;;;;;;;;;4988785;28;20231;-77
2023/05/21 14:33:12;;;;;;;9.23;8.32;;;;;;;;;;4970156;28;20226;-77
2023/05/21 14:35:42;;;;;;;8.88;8.07;;;;;;;;;;4987774;28;20216;-77
2023/05/21 14:38:15;;;;;;;8.48;7.78;;;;;;;;;;5001137;28;20233;-77
2023/05/21 14:40:40;;;;;;;8.38;7.68;;;;;;;;;;4990630;28;20713;-77
2023/05/21 14:43:06;;;;;;;8.68;7.88;;;;;;;;;;5003193;28;20279;-76
2023/05/21 14:45:34;;;;;;;7.88;7.28;;;;;;;;;;5007422;28;20231;-77
2023/05/21 14:48:07;;;;;;;8.05;7.38;;;;;;;;;;5004640;28;20541;-77
2023/05/21 14:50:40;;;;;;;8.80;8.00;;;;;;;;;;5013244;28;20223;-78
2023/05/21 14:53:12;;;;;;;8.05;7.35;;;;;;;;;;5008431;28;20252;-77
2023/05/21 14:55:45;;;;;;;8.35;7.72;;;;;;;;;;5016964;28;20220;-77
2023/05/21 14:58:10;;;;;;;8.13;7.43;;;;;;;;;;4987628;28;20236;-77